sensor_id;sensor_type;location;lat;lon;timestamp;temperature;humidity
68217;DHT22;55037;52.354;4.992;2022-08-25T00:00:11;24.50;81.30
68217;DHT22;55037;52.354;4.992;2022-08-25T00:02:38;24.50;81.30
68217;DHT22;55037;52.354;4.992;2022-08-25T00:05:06;24.40;81.20
68217;DHT22;55037;52.354;4.992;2022-08-25T00:07:35;24.40;81.30
68217;DHT22;55037;52.354;4.992;2022-08-25T00:10:04;24.50;82.40
68217;DHT22;55037;52.354;4.992;2022-08-25T00:12:32;24.50;81.10
68217;DHT22;55037;52.354;4.992;2022-08-25T00:14:59;24.50;80.90
68217;DHT22;55037;52.354;4.992;2022-08-25T00:17:26;24.50;80.60
68217;DHT22;55037;52.354;4.992;2022-08-25T00:19:54;24.50;79.70
68217;DHT22;55037;52.354;4.992;2022-08-25T00:22:21;24.50;80.40
68217;DHT22;55037;52.354;4.992;2022-08-25T00:24:48;24.50;80.20
68217;DHT22;55037;52.354;4.992;2022-08-25T00:27:15;24.50;80.50
68217;DHT22;55037;52.354;4.992;2022-08-25T00:29:43;24.40;79.80
68217;DHT22;55037;52.354;4.992;2022-08-25T00:32:11;24.30;80.90
68217;DHT22;55037;52.354;4.992;2022-08-25T00:34:38;24.30;80.90
68217;DHT22;55037;52.354;4.992;2022-08-25T00:37:07;24.30;81.10
68217;DHT22;55037;52.354;4.992;2022-08-25T00:39:36;24.20;81.60
68217;DHT22;55037;52.354;4.992;2022-08-25T00:42:05;24.20;82.00
68217;DHT22;55037;52.354;4.992;2022-08-25T00:44:42;24.20;82.30
68217;DHT22;55037;52.354;4.992;2022-08-25T00:47:09;24.10;82.70
68217;DHT22;55037;52.354;4.992;2022-08-25T00:49:47;24.10;82.20
68217;DHT22;55037;52.354;4.992;2022-08-25T00:52:40;24.10;83.20
68217;DHT22;55037;52.354;4.992;2022-08-25T00:55:10;24.00;83.40
68217;DHT22;55037;52.354;4.992;2022-08-25T00:57:57;24.10;83.70
68217;DHT22;55037;52.354;4.992;2022-08-25T01:00:36;24.10;83.90
68217;DHT22;55037;52.354;4.992;2022-08-25T01:03:05;24.00;83.60
68217;DHT22;55037;52.354;4.992;2022-08-25T01:05:33;24.10;83.80
68217;DHT22;55037;52.354;4.992;2022-08-25T01:08:01;24.00;83.50
68217;DHT22;55037;52.354;4.992;2022-08-25T01:10:34;24.10;83.10
68217;DHT22;55037;52.354;4.992;2022-08-25T01:13:08;24.00;82.50
68217;DHT22;55037;52.354;4.992;2022-08-25T01:15:44;24.00;82.00
68217;DHT22;55037;52.354;4.992;2022-08-25T01:18:12;24.00;81.20
68217;DHT22;55037;52.354;4.992;2022-08-25T01:20:40;24.00;80.70
68217;DHT22;55037;52.354;4.992;2022-08-25T01:23:07;24.00;80.20
68217;DHT22;55037;52.354;4.992;2022-08-25T01:26:01;24.00;79.90
68217;DHT22;55037;52.354;4.992;2022-08-25T01:28:30;24.00;79.50
68217;DHT22;55037;52.354;4.992;2022-08-25T01:30:58;23.90;79.20
68217;DHT22;55037;52.354;4.992;2022-08-25T01:33:27;24.00;79.00
68217;DHT22;55037;52.354;4.992;2022-08-25T01:35:55;24.00;78.80
68217;DHT22;55037;52.354;4.992;2022-08-25T01:38:22;23.90;77.40
68217;DHT22;55037;52.354;4.992;2022-08-25T01:40:49;23.90;79.10
68217;DHT22;55037;52.354;4.992;2022-08-25T01:43:30;23.90;77.70
68217;DHT22;55037;52.354;4.992;2022-08-25T01:46:01;23.90;77.50
68217;DHT22;55037;52.354;4.992;2022-08-25T01:48:29;23.90;77.50
68217;DHT22;55037;52.354;4.992;2022-08-25T01:50:56;23.90;77.40
68217;DHT22;55037;52.354;4.992;2022-08-25T01:53:28;23.80;77.20
68217;DHT22;55037;52.354;4.992;2022-08-25T01:56:09;23.80;77.10
68217;DHT22;55037;52.354;4.992;2022-08-25T01:58:40;23.80;77.50
68217;DHT22;55037;52.354;4.992;2022-08-25T02:01:15;23.70;77.60
68217;DHT22;55037;52.354;4.992;2022-08-25T02:03:46;23.70;78.00
68217;DHT22;55037;52.354;4.992;2022-08-25T02:06:23;23.80;78.00
68217;DHT22;55037;52.354;4.992;2022-08-25T02:08:58;23.70;78.10
68217;DHT22;55037;52.354;4.992;2022-08-25T02:11:27;23.70;78.20
68217;DHT22;55037;52.354;4.992;2022-08-25T02:13:54;23.70;78.20
68217;DHT22;55037;52.354;4.992;2022-08-25T02:16:27;23.70;78.20
68217;DHT22;55037;52.354;4.992;2022-08-25T02:18:55;23.60;77.70
68217;DHT22;55037;52.354;4.992;2022-08-25T02:21:23;23.60;78.50
68217;DHT22;55037;52.354;4.992;2022-08-25T02:23:50;23.60;78.50
68217;DHT22;55037;52.354;4.992;2022-08-25T02:26:17;23.50;78.40
68217;DHT22;55037;52.354;4.992;2022-08-25T02:28:46;23.50;77.90
68217;DHT22;55037;52.354;4.992;2022-08-25T02:31:15;23.50;78.90
68217;DHT22;55037;52.354;4.992;2022-08-25T02:33:42;23.50;79.00
68217;DHT22;55037;52.354;4.992;2022-08-25T02:36:10;23.40;78.70
68217;DHT22;55037;52.354;4.992;2022-08-25T02:38:38;23.40;78.50
68217;DHT22;55037;52.354;4.992;2022-08-25T02:41:18;23.40;78.50
68217;DHT22;55037;52.354;4.992;2022-08-25T02:43:47;23.40;78.40
68217;DHT22;55037;52.354;4.992;2022-08-25T02:46:16;23.30;78.10
68217;DHT22;55037;52.354;4.992;2022-08-25T02:48:45;23.30;77.20
68217;DHT22;55037;52.354;4.992;2022-08-25T02:51:13;23.30;78.00
68217;DHT22;55037;52.354;4.992;2022-08-25T02:53:41;23.30;78.00
68217;DHT22;55037;52.354;4.992;2022-08-25T02:56:13;23.20;78.20
68217;DHT22;55037;52.354;4.992;2022-08-25T02:58:41;23.20;76.90
68217;DHT22;55037;52.354;4.992;2022-08-25T03:01:08;23.20;77.50
68217;DHT22;55037;52.354;4.992;2022-08-25T03:03:43;23.20;77.60
68217;DHT22;55037;52.354;4.992;2022-08-25T03:06:17;23.20;77.40
68217;DHT22;55037;52.354;4.992;2022-08-25T03:08:45;23.10;76.50
68217;DHT22;55037;52.354;4.992;2022-08-25T03:11:12;23.10;77.00
68217;DHT22;55037;52.354;4.992;2022-08-25T03:13:39;23.10;76.80
68217;DHT22;55037;52.354;4.992;2022-08-25T03:16:08;23.10;76.20
68217;DHT22;55037;52.354;4.992;2022-08-25T03:18:40;23.10;76.10
68217;DHT22;55037;52.354;4.992;2022-08-25T03:21:09;23.10;76.00
68217;DHT22;55037;52.354;4.992;2022-08-25T03:23:38;23.10;75.60
68217;DHT22;55037;52.354;4.992;2022-08-25T03:26:06;23.00;75.40
68217;DHT22;55037;52.354;4.992;2022-08-25T03:28:52;23.10;75.10
68217;DHT22;55037;52.354;4.992;2022-08-25T03:31:23;23.00;74.60
68217;DHT22;55037;52.354;4.992;2022-08-25T03:33:51;23.00;74.10
68217;DHT22;55037;52.354;4.992;2022-08-25T03:36:18;23.10;73.60
68217;DHT22;55037;52.354;4.992;2022-08-25T03:38:45;23.10;72.80
68217;DHT22;55037;52.354;4.992;2022-08-25T03:41:25;23.20;71.80
68217;DHT22;55037;52.354;4.992;2022-08-25T03:43:55;23.30;71.20
68217;DHT22;55037;52.354;4.992;2022-08-25T03:46:28;23.30;70.40
68217;DHT22;55037;52.354;4.992;2022-08-25T03:48:56;23.40;69.80
68217;DHT22;55037;52.354;4.992;2022-08-25T03:51:27;23.40;69.20
68217;DHT22;55037;52.354;4.992;2022-08-25T03:53:54;23.40;68.60
68217;DHT22;55037;52.354;4.992;2022-08-25T03:56:22;23.50;67.90
68217;DHT22;55037;52.354;4.992;2022-08-25T03:58:50;23.50;67.10
68217;DHT22;55037;52.354;4.992;2022-08-25T04:01:17;23.50;66.20
68217;DHT22;55037;52.354;4.992;2022-08-25T04:03:45;23.60;65.40
68217;DHT22;55037;52.354;4.992;2022-08-25T04:06:14;23.60;64.50
68217;DHT22;55037;52.354;4.992;2022-08-25T04:08:41;23.60;64.20
68217;DHT22;55037;52.354;4.992;2022-08-25T04:11:10;23.70;63.50
68217;DHT22;55037;52.354;4.992;2022-08-25T04:13:40;23.70;62.60
68217;DHT22;55037;52.354;4.992;2022-08-25T04:16:17;23.60;62.50
68217;DHT22;55037;52.354;4.992;2022-08-25T04:18:46;23.60;62.10
68217;DHT22;55037;52.354;4.992;2022-08-25T04:21:14;23.60;61.60
68217;DHT22;55037;52.354;4.992;2022-08-25T04:23:43;23.60;61.20
68217;DHT22;55037;52.354;4.992;2022-08-25T04:26:12;23.60;60.70
68217;DHT22;55037;52.354;4.992;2022-08-25T04:28:40;23.70;60.30
68217;DHT22;55037;52.354;4.992;2022-08-25T04:31:09;23.70;60.00
68217;DHT22;55037;52.354;4.992;2022-08-25T04:33:37;23.70;59.50
68217;DHT22;55037;52.354;4.992;2022-08-25T04:36:05;23.80;59.30
68217;DHT22;55037;52.354;4.992;2022-08-25T04:38:40;23.70;57.70
68217;DHT22;55037;52.354;4.992;2022-08-25T04:41:10;23.70;58.70
68217;DHT22;55037;52.354;4.992;2022-08-25T04:43:39;23.70;58.50
68217;DHT22;55037;52.354;4.992;2022-08-25T04:46:13;23.70;58.40
68217;DHT22;55037;52.354;4.992;2022-08-25T04:48:47;23.70;57.70
68217;DHT22;55037;52.354;4.992;2022-08-25T04:51:19;23.70;57.50
68217;DHT22;55037;52.354;4.992;2022-08-25T04:53:46;23.80;57.30
68217;DHT22;55037;52.354;4.992;2022-08-25T04:56:15;23.70;57.20
68217;DHT22;55037;52.354;4.992;2022-08-25T04:58:43;23.70;56.40
68217;DHT22;55037;52.354;4.992;2022-08-25T05:01:15;23.70;57.20
68217;DHT22;55037;52.354;4.992;2022-08-25T05:03:44;23.70;57.90
68217;DHT22;55037;52.354;4.992;2022-08-25T05:06:13;23.70;56.80
68217;DHT22;55037;52.354;4.992;2022-08-25T05:08:43;23.70;56.60
68217;DHT22;55037;52.354;4.992;2022-08-25T05:11:13;23.70;56.30
68217;DHT22;55037;52.354;4.992;2022-08-25T05:13:46;23.70;56.20
68217;DHT22;55037;52.354;4.992;2022-08-25T05:16:19;23.70;55.80
68217;DHT22;55037;52.354;4.992;2022-08-25T05:18:47;23.80;55.60
68217;DHT22;55037;52.354;4.992;2022-08-25T05:21:18;23.90;55.30
68217;DHT22;55037;52.354;4.992;2022-08-25T05:23:46;23.90;54.80
68217;DHT22;55037;52.354;4.992;2022-08-25T05:26:20;24.00;54.30
68217;DHT22;55037;52.354;4.992;2022-08-25T05:28:50;24.10;53.90
68217;DHT22;55037;52.354;4.992;2022-08-25T05:31:18;24.10;53.60
68217;DHT22;55037;52.354;4.992;2022-08-25T05:33:46;24.20;53.30
68217;DHT22;55037;52.354;4.992;2022-08-25T05:36:14;24.20;53.20
68217;DHT22;55037;52.354;4.992;2022-08-25T05:38:43;24.20;51.80
68217;DHT22;55037;52.354;4.992;2022-08-25T05:41:16;24.20;52.50
68217;DHT22;55037;52.354;4.992;2022-08-25T05:43:45;24.30;52.40
68217;DHT22;55037;52.354;4.992;2022-08-25T05:46:15;24.30;52.10
68217;DHT22;55037;52.354;4.992;2022-08-25T05:48:43;24.30;51.90
68217;DHT22;55037;52.354;4.992;2022-08-25T05:51:11;24.40;52.00
68217;DHT22;55037;52.354;4.992;2022-08-25T05:53:42;24.40;51.60
68217;DHT22;55037;52.354;4.992;2022-08-25T05:56:10;24.30;51.90
68217;DHT22;55037;52.354;4.992;2022-08-25T05:58:37;24.30;52.20
68217;DHT22;55037;52.354;4.992;2022-08-25T06:01:05;24.30;52.40
68217;DHT22;55037;52.354;4.992;2022-08-25T06:03:51;24.30;52.70
68217;DHT22;55037;52.354;4.992;2022-08-25T06:06:23;24.30;53.10
68217;DHT22;55037;52.354;4.992;2022-08-25T06:08:51;24.20;52.50
68217;DHT22;55037;52.354;4.992;2022-08-25T06:11:18;24.30;52.90
68217;DHT22;55037;52.354;4.992;2022-08-25T06:13:46;24.20;53.00
68217;DHT22;55037;52.354;4.992;2022-08-25T06:16:13;24.30;53.10
68217;DHT22;55037;52.354;4.992;2022-08-25T06:18:40;24.50;52.70
68217;DHT22;55037;52.354;4.992;2022-08-25T06:21:13;24.60;52.00
68217;DHT22;55037;52.354;4.992;2022-08-25T06:23:40;24.60;51.60
68217;DHT22;55037;52.354;4.992;2022-08-25T06:26:12;24.60;50.90
68217;DHT22;55037;52.354;4.992;2022-08-25T06:28:48;24.60;50.90
68217;DHT22;55037;52.354;4.992;2022-08-25T06:31:17;24.60;50.80
68217;DHT22;55037;52.354;4.992;2022-08-25T06:33:45;24.60;51.20
68217;DHT22;55037;52.354;4.992;2022-08-25T06:36:13;24.50;51.00
68217;DHT22;55037;52.354;4.992;2022-08-25T06:38:41;24.60;51.10
68217;DHT22;55037;52.354;4.992;2022-08-25T06:41:09;24.50;50.80
68217;DHT22;55037;52.354;4.992;2022-08-25T06:43:40;24.50;51.30
68217;DHT22;55037;52.354;4.992;2022-08-25T06:46:21;24.60;51.10
68217;DHT22;55037;52.354;4.992;2022-08-25T06:49:03;24.60;50.60
68217;DHT22;55037;52.354;4.992;2022-08-25T06:51:30;24.60;50.20
68217;DHT22;55037;52.354;4.992;2022-08-25T06:53:59;24.60;50.60
68217;DHT22;55037;52.354;4.992;2022-08-25T06:56:26;24.60;50.70
68217;DHT22;55037;52.354;4.992;2022-08-25T06:58:53;24.70;49.50
68217;DHT22;55037;52.354;4.992;2022-08-25T07:01:23;24.70;50.00
68217;DHT22;55037;52.354;4.992;2022-08-25T07:03:58;24.80;50.00
68217;DHT22;55037;52.354;4.992;2022-08-25T07:06:27;24.80;49.60
68217;DHT22;55037;52.354;4.992;2022-08-25T07:08:55;24.90;49.40
68217;DHT22;55037;52.354;4.992;2022-08-25T07:11:22;25.10;49.60
68217;DHT22;55037;52.354;4.992;2022-08-25T07:13:50;25.20;48.40
68217;DHT22;55037;52.354;4.992;2022-08-25T07:16:18;25.50;48.20
68217;DHT22;55037;52.354;4.992;2022-08-25T07:18:47;25.70;46.60
68217;DHT22;55037;52.354;4.992;2022-08-25T07:21:15;25.80;45.80
68217;DHT22;55037;52.354;4.992;2022-08-25T07:23:42;25.90;45.70
68217;DHT22;55037;52.354;4.992;2022-08-25T07:26:15;26.10;45.20
68217;DHT22;55037;52.354;4.992;2022-08-25T07:29:06;26.30;44.00
68217;DHT22;55037;52.354;4.992;2022-08-25T07:31:34;26.40;44.80
68217;DHT22;55037;52.354;4.992;2022-08-25T07:34:01;26.50;44.50
68217;DHT22;55037;52.354;4.992;2022-08-25T07:36:47;26.60;43.80
68217;DHT22;55037;52.354;4.992;2022-08-25T07:39:14;26.80;44.00
68217;DHT22;55037;52.354;4.992;2022-08-25T07:41:42;27.00;43.50
68217;DHT22;55037;52.354;4.992;2022-08-25T07:44:11;27.20;43.00
68217;DHT22;55037;52.354;4.992;2022-08-25T07:46:39;27.30;42.90
68217;DHT22;55037;52.354;4.992;2022-08-25T07:49:08;27.40;41.30
68217;DHT22;55037;52.354;4.992;2022-08-25T07:51:44;27.40;42.00
68217;DHT22;55037;52.354;4.992;2022-08-25T07:54:32;27.60;41.70
68217;DHT22;55037;52.354;4.992;2022-08-25T07:57:02;27.60;41.10
68217;DHT22;55037;52.354;4.992;2022-08-25T07:59:30;27.70;40.80
68217;DHT22;55037;52.354;4.992;2022-08-25T08:02:08;27.80;40.90
68217;DHT22;55037;52.354;4.992;2022-08-25T08:04:49;27.90;40.10
68217;DHT22;55037;52.354;4.992;2022-08-25T08:07:18;27.90;40.20
68217;DHT22;55037;52.354;4.992;2022-08-25T08:09:46;28.00;39.50
68217;DHT22;55037;52.354;4.992;2022-08-25T08:12:23;28.20;39.60
68217;DHT22;55037;52.354;4.992;2022-08-25T08:14:50;28.30;39.70
68217;DHT22;55037;52.354;4.992;2022-08-25T08:17:19;28.40;39.40
68217;DHT22;55037;52.354;4.992;2022-08-25T08:19:47;28.50;38.90
68217;DHT22;55037;52.354;4.992;2022-08-25T08:22:14;28.60;38.40
68217;DHT22;55037;52.354;4.992;2022-08-25T08:24:43;28.70;38.20
68217;DHT22;55037;52.354;4.992;2022-08-25T08:27:22;28.80;37.80
68217;DHT22;55037;52.354;4.992;2022-08-25T08:29:49;29.10;37.90
68217;DHT22;55037;52.354;4.992;2022-08-25T08:32:16;29.20;37.40
68217;DHT22;55037;52.354;4.992;2022-08-25T08:34:45;29.40;37.30
68217;DHT22;55037;52.354;4.992;2022-08-25T08:37:18;29.60;36.80
68217;DHT22;55037;52.354;4.992;2022-08-25T08:39:49;29.90;36.10
68217;DHT22;55037;52.354;4.992;2022-08-25T08:45:20;29.90;36.50
68217;DHT22;55037;52.354;4.992;2022-08-25T08:53:50;30.40;35.00
68217;DHT22;55037;52.354;4.992;2022-08-25T08:56:22;30.60;35.00
68217;DHT22;55037;52.354;4.992;2022-08-25T08:59:10;31.20;34.30
68217;DHT22;55037;52.354;4.992;2022-08-25T09:01:47;33.40;30.20
68217;DHT22;55037;52.354;4.992;2022-08-25T09:04:36;35.50;27.80
68217;DHT22;55037;52.354;4.992;2022-08-25T09:07:10;38.10;24.50
68217;DHT22;55037;52.354;4.992;2022-08-25T09:09:40;40.00;22.20
68217;DHT22;55037;52.354;4.992;2022-08-25T09:12:36;41.40;20.50
68217;DHT22;55037;52.354;4.992;2022-08-25T09:18:10;43.70;18.20
68217;DHT22;55037;52.354;4.992;2022-08-25T09:24:06;45.60;15.50
68217;DHT22;55037;52.354;4.992;2022-08-25T09:26:52;46.80;15.10
68217;DHT22;55037;52.354;4.992;2022-08-25T09:29:23;47.30;14.50
68217;DHT22;55037;52.354;4.992;2022-08-25T09:31:57;47.40;14.20
68217;DHT22;55037;52.354;4.992;2022-08-25T09:34:30;47.40;13.90
68217;DHT22;55037;52.354;4.992;2022-08-25T09:36:59;47.40;13.80
68217;DHT22;55037;52.354;4.992;2022-08-25T09:39:27;47.60;13.50
68217;DHT22;55037;52.354;4.992;2022-08-25T09:41:57;47.90;13.20
68217;DHT22;55037;52.354;4.992;2022-08-25T09:47:03;48.80;12.60
68217;DHT22;55037;52.354;4.992;2022-08-25T09:49:37;49.20;12.40
68217;DHT22;55037;52.354;4.992;2022-08-25T09:55:20;50.10;11.40
68217;DHT22;55037;52.354;4.992;2022-08-25T09:57:52;50.30;11.40
68217;DHT22;55037;52.354;4.992;2022-08-25T10:00:29;50.20;11.30
68217;DHT22;55037;52.354;4.992;2022-08-25T10:03:04;48.70;12.00
68217;DHT22;55037;52.354;4.992;2022-08-25T10:11:13;48.60;12.20
68217;DHT22;55037;52.354;4.992;2022-08-25T10:13:44;48.80;11.90
68217;DHT22;55037;52.354;4.992;2022-08-25T10:19:10;49.70;11.20
68217;DHT22;55037;52.354;4.992;2022-08-25T10:21:40;50.70;10.60
68217;DHT22;55037;52.354;4.992;2022-08-25T10:24:18;51.30;10.00
68217;DHT22;55037;52.354;4.992;2022-08-25T10:26:52;51.00;9.90
68217;DHT22;55037;52.354;4.992;2022-08-25T10:34:55;51.60;10.00
68217;DHT22;55037;52.354;4.992;2022-08-25T10:40:30;54.20;8.50
68217;DHT22;55037;52.354;4.992;2022-08-25T10:43:14;54.10;8.30
68217;DHT22;55037;52.354;4.992;2022-08-25T10:45:56;54.80;8.30
68217;DHT22;55037;52.354;4.992;2022-08-25T10:56:40;54.50;8.80
68217;DHT22;55037;52.354;4.992;2022-08-25T11:04:36;55.60;6.70
68217;DHT22;55037;52.354;4.992;2022-08-25T11:07:15;55.30;6.70
68217;DHT22;55037;52.354;4.992;2022-08-25T11:09:48;54.00;7.50
68217;DHT22;55037;52.354;4.992;2022-08-25T11:12:31;53.10;7.60
68217;DHT22;55037;52.354;4.992;2022-08-25T11:15:18;51.30;7.90
68217;DHT22;55037;52.354;4.992;2022-08-25T11:17:56;50.30;9.00
68217;DHT22;55037;52.354;4.992;2022-08-25T11:20:30;49.10;9.70
68217;DHT22;55037;52.354;4.992;2022-08-25T11:25:53;46.80;10.90
68217;DHT22;55037;52.354;4.992;2022-08-25T11:28:35;46.10;11.10
68217;DHT22;55037;52.354;4.992;2022-08-25T11:31:07;45.80;11.20
68217;DHT22;55037;52.354;4.992;2022-08-25T11:33:36;46.70;10.50
68217;DHT22;55037;52.354;4.992;2022-08-25T11:36:33;48.00;10.20
68217;DHT22;55037;52.354;4.992;2022-08-25T11:45:26;48.10;9.50
68217;DHT22;55037;52.354;4.992;2022-08-25T11:48:19;46.80;10.20
68217;DHT22;55037;52.354;4.992;2022-08-25T11:56:01;50.50;8.80
68217;DHT22;55037;52.354;4.992;2022-08-25T12:01:57;50.40;8.30
68217;DHT22;55037;52.354;4.992;2022-08-25T12:04:41;49.00;8.90
68217;DHT22;55037;52.354;4.992;2022-08-25T12:07:21;48.50;9.60
68217;DHT22;55037;52.354;4.992;2022-08-25T12:15:24;45.80;11.70
68217;DHT22;55037;52.354;4.992;2022-08-25T12:18:13;45.30;12.20
68217;DHT22;55037;52.354;4.992;2022-08-25T12:23:33;46.40;12.20
68217;DHT22;55037;52.354;4.992;2022-08-25T12:26:29;46.70;12.00
68217;DHT22;55037;52.354;4.992;2022-08-25T12:32:15;48.50;10.20
68217;DHT22;55037;52.354;4.992;2022-08-25T12:37:32;48.60;10.40
68217;DHT22;55037;52.354;4.992;2022-08-25T12:40:05;50.40;9.70
68217;DHT22;55037;52.354;4.992;2022-08-25T12:42:40;51.70;9.00
68217;DHT22;55037;52.354;4.992;2022-08-25T12:47:51;52.00;8.50
68217;DHT22;55037;52.354;4.992;2022-08-25T12:53:13;50.80;8.70
68217;DHT22;55037;52.354;4.992;2022-08-25T12:55:46;50.50;8.90
68217;DHT22;55037;52.354;4.992;2022-08-25T12:58:15;50.80;8.80
68217;DHT22;55037;52.354;4.992;2022-08-25T13:10:27;50.50;9.00
68217;DHT22;55037;52.354;4.992;2022-08-25T13:18:23;50.70;8.50
68217;DHT22;55037;52.354;4.992;2022-08-25T13:21:00;49.50;9.50
68217;DHT22;55037;52.354;4.992;2022-08-25T13:23:32;49.40;10.00
68217;DHT22;55037;52.354;4.992;2022-08-25T13:25:59;50.00;9.40
68217;DHT22;55037;52.354;4.992;2022-08-25T13:28:33;50.60;9.10
68217;DHT22;55037;52.354;4.992;2022-08-25T13:31:12;50.80;8.50
68217;DHT22;55037;52.354;4.992;2022-08-25T13:33:50;49.90;8.80
68217;DHT22;55037;52.354;4.992;2022-08-25T13:36:23;50.00;9.10
68217;DHT22;55037;52.354;4.992;2022-08-25T13:39:24;49.80;9.20
68217;DHT22;55037;52.354;4.992;2022-08-25T13:42:15;50.00;9.20
68217;DHT22;55037;52.354;4.992;2022-08-25T13:44:43;51.20;9.60
68217;DHT22;55037;52.354;4.992;2022-08-25T13:47:35;51.80;8.00
68217;DHT22;55037;52.354;4.992;2022-08-25T13:58:26;51.20;8.60
68217;DHT22;55037;52.354;4.992;2022-08-25T14:01:19;51.20;8.90
68217;DHT22;55037;52.354;4.992;2022-08-25T14:09:56;51.50;8.70
68217;DHT22;55037;52.354;4.992;2022-08-25T14:18:08;53.10;7.60
68217;DHT22;55037;52.354;4.992;2022-08-25T14:20:46;52.90;7.70
68217;DHT22;55037;52.354;4.992;2022-08-25T14:23:24;51.50;8.40
68217;DHT22;55037;52.354;4.992;2022-08-25T14:25:55;50.00;9.20
68217;DHT22;55037;52.354;4.992;2022-08-25T14:28:25;48.80;9.60
68217;DHT22;55037;52.354;4.992;2022-08-25T14:31:01;47.90;9.90
68217;DHT22;55037;52.354;4.992;2022-08-25T14:33:51;48.00;10.00
68217;DHT22;55037;52.354;4.992;2022-08-25T14:36:20;48.40;9.80
68217;DHT22;55037;52.354;4.992;2022-08-25T14:38:47;47.60;10.00
68217;DHT22;55037;52.354;4.992;2022-08-25T14:41:22;47.40;10.10
68217;DHT22;55037;52.354;4.992;2022-08-25T14:43:50;47.80;10.30
68217;DHT22;55037;52.354;4.992;2022-08-25T14:46:24;48.70;10.00
68217;DHT22;55037;52.354;4.992;2022-08-25T14:48:56;49.30;9.50
68217;DHT22;55037;52.354;4.992;2022-08-25T14:51:27;49.90;9.00
68217;DHT22;55037;52.354;4.992;2022-08-25T14:53:58;50.30;8.70
68217;DHT22;55037;52.354;4.992;2022-08-25T14:56:26;50.10;9.00
68217;DHT22;55037;52.354;4.992;2022-08-25T14:58:55;49.20;9.50
68217;DHT22;55037;52.354;4.992;2022-08-25T15:01:26;47.90;10.20
68217;DHT22;55037;52.354;4.992;2022-08-25T15:04:00;47.10;10.40
68217;DHT22;55037;52.354;4.992;2022-08-25T15:06:29;46.80;10.50
68217;DHT22;55037;52.354;4.992;2022-08-25T15:08:57;46.70;10.70
68217;DHT22;55037;52.354;4.992;2022-08-25T15:11:43;46.30;11.00
68217;DHT22;55037;52.354;4.992;2022-08-25T15:14:13;46.40;11.20
68217;DHT22;55037;52.354;4.992;2022-08-25T15:16:50;46.30;12.20
68217;DHT22;55037;52.354;4.992;2022-08-25T15:19:20;46.00;12.70
68217;DHT22;55037;52.354;4.992;2022-08-25T15:21:49;45.60;12.20
68217;DHT22;55037;52.354;4.992;2022-08-25T15:24:18;45.20;12.60
68217;DHT22;55037;52.354;4.992;2022-08-25T15:26:51;44.60;12.60
68217;DHT22;55037;52.354;4.992;2022-08-25T15:29:21;44.00;12.70
68217;DHT22;55037;52.354;4.992;2022-08-25T15:31:49;43.60;12.80
68217;DHT22;55037;52.354;4.992;2022-08-25T15:34:17;43.50;14.10
68217;DHT22;55037;52.354;4.992;2022-08-25T15:36:45;43.60;14.30
68217;DHT22;55037;52.354;4.992;2022-08-25T15:39:13;43.60;14.10
68217;DHT22;55037;52.354;4.992;2022-08-25T15:41:45;43.40;14.30
68217;DHT22;55037;52.354;4.992;2022-08-25T15:44:15;43.20;14.60
68217;DHT22;55037;52.354;4.992;2022-08-25T15:46:43;43.20;14.50
68217;DHT22;55037;52.354;4.992;2022-08-25T15:49:18;42.80;15.10
68217;DHT22;55037;52.354;4.992;2022-08-25T15:51:53;42.40;15.30
68217;DHT22;55037;52.354;4.992;2022-08-25T15:54:22;41.80;16.10
68217;DHT22;55037;52.354;4.992;2022-08-25T15:56:51;41.10;17.40
68217;DHT22;55037;52.354;4.992;2022-08-25T15:59:19;40.70;18.20
68217;DHT22;55037;52.354;4.992;2022-08-25T16:01:50;40.50;18.10
68217;DHT22;55037;52.354;4.992;2022-08-25T16:04:22;39.70;18.60
68217;DHT22;55037;52.354;4.992;2022-08-25T16:06:50;39.10;19.80
68217;DHT22;55037;52.354;4.992;2022-08-25T16:09:19;38.60;20.50
68217;DHT22;55037;52.354;4.992;2022-08-25T16:11:50;38.30;21.60
68217;DHT22;55037;52.354;4.992;2022-08-25T16:14:25;37.90;22.80
68217;DHT22;55037;52.354;4.992;2022-08-25T16:16:54;37.80;23.80
68217;DHT22;55037;52.354;4.992;2022-08-25T16:19:28;37.90;23.80
68217;DHT22;55037;52.354;4.992;2022-08-25T16:21:56;37.90;24.30
68217;DHT22;55037;52.354;4.992;2022-08-25T16:24:24;37.80;24.10
68217;DHT22;55037;52.354;4.992;2022-08-25T16:26:52;37.40;24.70
68217;DHT22;55037;52.354;4.992;2022-08-25T16:29:22;36.90;25.70
68217;DHT22;55037;52.354;4.992;2022-08-25T16:31:50;36.30;26.90
68217;DHT22;55037;52.354;4.992;2022-08-25T16:34:21;35.90;28.50
68217;DHT22;55037;52.354;4.992;2022-08-25T16:36:54;35.60;28.20
68217;DHT22;55037;52.354;4.992;2022-08-25T16:39:22;35.20;28.00
68217;DHT22;55037;52.354;4.992;2022-08-25T16:41:50;35.10;29.10
68217;DHT22;55037;52.354;4.992;2022-08-25T16:44:19;34.70;29.50
68217;DHT22;55037;52.354;4.992;2022-08-25T16:46:49;34.20;30.50
68217;DHT22;55037;52.354;4.992;2022-08-25T16:49:20;34.00;31.30
68217;DHT22;55037;52.354;4.992;2022-08-25T16:51:51;33.80;32.40
68217;DHT22;55037;52.354;4.992;2022-08-25T16:54:25;33.80;32.60
68217;DHT22;55037;52.354;4.992;2022-08-25T16:57:11;33.60;32.50
68217;DHT22;55037;52.354;4.992;2022-08-25T16:59:39;33.80;31.40
68217;DHT22;55037;52.354;4.992;2022-08-25T17:02:09;33.90;32.40
68217;DHT22;55037;52.354;4.992;2022-08-25T17:04:37;33.70;32.20
68217;DHT22;55037;52.354;4.992;2022-08-25T17:07:04;33.40;32.90
68217;DHT22;55037;52.354;4.992;2022-08-25T17:09:33;33.20;33.20
68217;DHT22;55037;52.354;4.992;2022-08-25T17:12:01;33.00;33.80
68217;DHT22;55037;52.354;4.992;2022-08-25T17:14:28;33.00;34.40
68217;DHT22;55037;52.354;4.992;2022-08-25T17:16:56;32.80;35.00
68217;DHT22;55037;52.354;4.992;2022-08-25T17:19:24;32.50;35.70
68217;DHT22;55037;52.354;4.992;2022-08-25T17:22:06;31.90;35.80
68217;DHT22;55037;52.354;4.992;2022-08-25T17:24:35;31.50;37.50
68217;DHT22;55037;52.354;4.992;2022-08-25T17:27:06;31.20;39.00
68217;DHT22;55037;52.354;4.992;2022-08-25T17:29:33;31.00;39.40
68217;DHT22;55037;52.354;4.992;2022-08-25T17:32:02;30.90;39.00
68217;DHT22;55037;52.354;4.992;2022-08-25T17:34:30;30.60;38.30
68217;DHT22;55037;52.354;4.992;2022-08-25T17:36:58;30.30;39.30
68217;DHT22;55037;52.354;4.992;2022-08-25T17:39:25;30.10;40.50
68217;DHT22;55037;52.354;4.992;2022-08-25T17:41:53;29.70;41.60
68217;DHT22;55037;52.354;4.992;2022-08-25T17:44:20;29.40;43.50
68217;DHT22;55037;52.354;4.992;2022-08-25T17:46:48;29.10;44.90
68217;DHT22;55037;52.354;4.992;2022-08-25T17:49:18;29.00;45.50
68217;DHT22;55037;52.354;4.992;2022-08-25T17:51:45;28.80;46.20
68217;DHT22;55037;52.354;4.992;2022-08-25T17:54:12;28.60;47.30
68217;DHT22;55037;52.354;4.992;2022-08-25T17:56:42;28.40;48.70
68217;DHT22;55037;52.354;4.992;2022-08-25T17:59:09;28.10;49.50
68217;DHT22;55037;52.354;4.992;2022-08-25T18:01:38;27.80;48.40
68217;DHT22;55037;52.354;4.992;2022-08-25T18:04:08;27.60;49.30